• Join FlightAware (Why Join?)
  • Login
  • US Flag 
10:08PM EST


 

Airport Tracker/Info


-or-


 

Live Flight TrackerFlight Track Log ✈ SAS2616 ✈ 06-May-2012 ✈ LSGG / GVA - ESSA / ARN

Flight Track Log - Related Links

Times and Time Zones

All times are in EDT time to prevent confusion due to time zone crossing. See the SAS2616 flight status page for this flight to view local times or setup timezone preferences in your user account.

Time Position Orientation Groundspeed Altitude Reporting Facility
EDT Latitude Longitude Course Direction KTS MPH feet Rate Location/Type
01:00PM 46.2974 6.1460 23° Northeast  Level Estimated
01:01PM 46.4085 6.2156 23° Northeast  Level Estimated
01:02PM 46.5196 6.2856 23° Northeast  Level Estimated
01:03PM 46.6307 6.3558 24° Northeast  Level Estimated
01:04PM 46.7417 6.4263 24° Northeast  Level Estimated
01:05PM 46.8527 6.4970 24° Northeast  Level Estimated
01:06PM 46.9636 6.5681 24° Northeast  Level Estimated
01:07PM 47.0745 6.6395 24° Northeast  Level Estimated
01:08PM 47.1853 6.7112 24° Northeast  Level Estimated
01:09PM 47.2962 6.7832 24° Northeast  Level Estimated
01:10PM 47.4069 6.8555 24° Northeast  Level Estimated
01:11PM 47.5176 6.9280 24° Northeast  Level Estimated
01:12PM 47.6283 7.0009 24° Northeast  Level Estimated
01:13PM 47.7389 7.0741 24° Northeast  Level Estimated
01:14PM 47.8495 7.1476 24° Northeast  Level Estimated
01:15PM 47.9600 7.2215 24° Northeast  Level Estimated
01:16PM 48.0705 7.2956 24° Northeast  Level Estimated
01:17PM 48.1809 7.3701 24° Northeast  Level Estimated
01:18PM 48.2913 7.4448 24° Northeast  Level Estimated
01:19PM 48.4016 7.5199 24° Northeast  Level Estimated
01:20PM 48.5119 7.5954 24° Northeast  Level Estimated
01:21PM 48.6221 7.6711 24° Northeast  Level Estimated
01:22PM 48.7323 7.7472 25° Northeast  Level Estimated
01:23PM 48.8424 7.8237 25° Northeast  Level Estimated
01:24PM 48.9525 7.9004 25° Northeast  Level Estimated
01:25PM 49.0625 7.9775 25° Northeast  Level Estimated
01:26PM 49.1725 8.0550 25° Northeast  Level Estimated
01:27PM 49.2824 8.1328 25° Northeast  Level Estimated
01:28PM 49.3923 8.2109 25° Northeast  Level Estimated
01:29PM 49.5021 8.2894 25° Northeast  Level Estimated
01:30PM 49.6119 8.3682 25° Northeast  Level Estimated
01:31PM 49.7216 8.4474 25° Northeast  Level Estimated
01:32PM 49.8313 8.5270 25° Northeast  Level Estimated
01:33PM 49.9409 8.6069 25° Northeast  Level Estimated
01:34PM 50.0504 8.6872 25° Northeast  Level Estimated
01:35PM 50.1599 8.7678 25° Northeast  Level Estimated
01:36PM 50.2693 8.8489 25° Northeast  Level Estimated
01:37PM 50.3787 8.9303 25° Northeast  Level Estimated
01:38PM 50.4880 9.0120 26° Northeast  Level Estimated
01:39PM 50.5973 9.0942 26° Northeast  Level Estimated
01:40PM 50.7065 9.1767 26° Northeast  Level Estimated
01:41PM 50.8157 9.2596 26° Northeast  Level Estimated
01:42PM 50.9248 9.3429 26° Northeast  Level Estimated
01:43PM 51.0338 9.4266 26° Northeast  Level Estimated
01:44PM 51.1428 9.5107 26° Northeast  Level Estimated
01:45PM 51.2517 9.5952 26° Northeast  Level Estimated
01:46PM 51.3605 9.6801 26° Northeast  Level Estimated
01:47PM 51.4693 9.7654 26° Northeast  Level Estimated
01:48PM 51.5780 9.8511 26° Northeast  Level Estimated
01:49PM 51.6867 9.9372 26° Northeast  Level Estimated
01:50PM 51.7953 10.0237 26° Northeast  Level Estimated
01:51PM 51.9038 10.1107 26° Northeast  Level Estimated
01:52PM 52.0123 10.1980 26° Northeast  Level Estimated
01:53PM 52.1207 10.2858 27° Northeast  Level Estimated
01:54PM 52.2291 10.3740 27° Northeast  Level Estimated
01:55PM 52.3373 10.4627 27° Northeast  Level Estimated
01:56PM 52.4455 10.5518 27° Northeast  Level Estimated
01:57PM 52.5537 10.6413 27° Northeast  Level Estimated
01:58PM 52.6618 10.7312 27° Northeast  Level Estimated
01:59PM 52.7698 10.8216 27° Northeast  Level Estimated
02:00PM 52.8777 10.9125 27° Northeast  Level Estimated
02:01PM 52.9856 11.0038 27° Northeast  Level Estimated
02:02PM 53.0934 11.0956 27° Northeast  Level Estimated
02:03PM 53.2011 11.1878 27° Northeast  Level Estimated
02:04PM 53.3088 11.2805 27° Northeast  Level Estimated
02:05PM 53.4163 11.3737 27° Northeast  Level Estimated
02:06PM 53.5238 11.4673 27° Northeast  Level Estimated
02:07PM 53.6313 11.5614 28° Northeast  Level Estimated
02:08PM 53.7386 11.6560 28° Northeast  Level Estimated
02:09PM 53.8459 11.7511 28° Northeast  Level Estimated
02:10PM 53.9531 11.8467 28° Northeast  Level Estimated
02:11PM 54.0603 11.9427 28° Northeast  Level Estimated
02:12PM 54.1673 12.0393 28° Northeast  Level Estimated
02:13PM 54.2743 12.1363 28° Northeast  Level Estimated
02:14PM 54.3812 12.2339 28° Northeast  Level Estimated
02:15PM 54.4880 12.3320 28° Northeast  Level Estimated
02:16PM 54.5948 12.4306 28° Northeast  Level Estimated
02:17PM 54.7014 12.5297 28° Northeast  Level Estimated
02:18PM 54.8080 12.6293 28° Northeast  Level Estimated
02:19PM 54.9145 12.7294 28° Northeast  Level Estimated
02:20PM 55.0209 12.8301 29° Northeast  Level Estimated
02:21PM 55.1273 12.9313 29° Northeast  Level Estimated
02:22PM 55.2335 13.0331 29° Northeast  Level Estimated
02:23PM 55.3397 13.1354 29° Northeast  Level Estimated
02:24PM 55.4457 13.2382 29° Northeast  Level Estimated
02:25PM 55.5517 13.3417 29° Northeast  Level Estimated
02:26PM 55.6576 13.4456 29° Northeast  Level Estimated
02:27PM 55.7635 13.5501 29° Northeast  Level Estimated
02:28PM 55.8692 13.6552 29° Northeast  Level Estimated
02:29PM 55.9748 13.7609 29° Northeast  Level Estimated
02:30PM 56.0804 13.8672 29° Northeast  Level Estimated
02:31PM 56.1858 13.9740 29° Northeast  Level Estimated
02:32PM 56.2912 14.0814 30° Northeast  Level Estimated
02:33PM 56.3964 14.1894 30° Northeast  Level Estimated
02:34PM 56.5016 14.2980 30° Northeast  Level Estimated
02:35PM 56.6067 14.4073 30° Northeast  Level Estimated
02:36PM 56.7117 14.5171 30° Northeast  Level Estimated
02:37PM 56.8165 14.6275 30° Northeast  Level Estimated
02:38PM 56.9213 14.7386 30° Northeast  Level Estimated
02:39PM 57.0260 14.8503 30° Northeast  Level Estimated
02:40PM 57.1306 14.9626 30° Northeast  Level Estimated
02:41PM 57.2351 15.0756 30° Northeast  Level Estimated
02:42PM 57.3395 15.1891 31° Northeast  Level Estimated
02:43PM 57.4437 15.3034 31° Northeast  Level Estimated
02:44PM 57.5479 15.4183 31° Northeast  Level Estimated
02:45PM 57.6520 15.5338 31° Northeast  Level Estimated
02:46PM 57.7560 15.6501 31° Northeast  Level Estimated
02:47PM 57.8598 15.7669 31° Northeast  Level Estimated
02:48PM 57.9636 15.8845 31° Northeast  Level Estimated
02:49PM 58.0672 16.0028 31° Northeast  Level Estimated
02:50PM 58.1707 16.1217 31° Northeast  Level Estimated
02:51PM 58.2742 16.2413 31° Northeast  Level Estimated
02:52PM 58.3775 16.3617 32° Northeast  Level Estimated
02:53PM 58.4807 16.4827 32° Northeast  Level Estimated
02:54PM 58.5837 16.6044 32° Northeast  Level Estimated
02:55PM 58.6867 16.7269 32° Northeast  Level Estimated
02:56PM 58.7895 16.8501 32° Northeast  Level Estimated
02:57PM 58.8923 16.9740 32° Northeast  Level Estimated
02:58PM 58.9949 17.0987 32° Northeast  Level Estimated
02:59PM 59.0974 17.2241 32° Northeast  Level Estimated
03:00PM 59.1997 17.3503 32° Northeast  Level Estimated
03:01PM 59.3020 17.4772 32° Northeast  Level Estimated
03:02PM 59.4041 17.6049 33° Northeast  Level Estimated
03:03PM 59.5061 17.7333 33° Northeast  Level Estimated
03:04PM 59.6080 17.8625 33° Northeast  Level Estimated
03:05PM 59.7097 17.9925 213° Southwest  Level Estimated
03:06PM 59.6080 17.8625 33° Northeast  Level Estimated
03:07PM 59.7097 17.9925 213° Southwest  Level Estimated
03:08PM 59.6080 17.8625 33° Northeast  Level Estimated
03:09PM 59.7097 17.9925 213° Southwest  Level Estimated
03:10PM 59.6080 17.8625 33° Northeast  Level Estimated
03:11PM 59.7097 17.9925 213° Southwest  Level Estimated
03:12PM 59.6080 17.8625 33° Northeast  Level Estimated
03:13PM 59.7097 17.9925 213° Southwest  Level Estimated
03:14PM 59.6080 17.8625 33° Northeast  Level Estimated
03:15PM 59.7097 17.9925 213° Southwest  Level Estimated
03:16PM 59.6080 17.8625 213° Southwest  Level Estimated